sensor_id;sensor_type;location;lat;lon;timestamp;temperature;humidity
67559;DHT22;54388;53.536;49.300;2023-06-14T00:00:32;20.10;34.30
67559;DHT22;54388;53.536;49.300;2023-06-14T00:03:01;20.00;34.20
67559;DHT22;54388;53.536;49.300;2023-06-14T00:05:27;20.00;34.30
67559;DHT22;54388;53.536;49.300;2023-06-14T00:07:55;20.00;34.40
67559;DHT22;54388;53.536;49.300;2023-06-14T00:10:22;20.00;34.50
67559;DHT22;54388;53.536;49.300;2023-06-14T00:12:49;20.00;34.50
67559;DHT22;54388;53.536;49.300;2023-06-14T00:15:16;20.00;34.60
67559;DHT22;54388;53.536;49.300;2023-06-14T00:17:42;19.90;34.50
67559;DHT22;54388;53.536;49.300;2023-06-14T00:20:13;19.90;34.60
67559;DHT22;54388;53.536;49.300;2023-06-14T00:22:39;19.90;34.70
67559;DHT22;54388;53.536;49.300;2023-06-14T00:25:06;19.90;34.80
67559;DHT22;54388;53.536;49.300;2023-06-14T00:27:33;19.90;35.00
67559;DHT22;54388;53.536;49.300;2023-06-14T00:29:59;19.90;35.00
67559;DHT22;54388;53.536;49.300;2023-06-14T00:32:26;19.90;35.10
67559;DHT22;54388;53.536;49.300;2023-06-14T00:34:53;19.90;35.10
67559;DHT22;54388;53.536;49.300;2023-06-14T00:37:20;19.90;35.20
67559;DHT22;54388;53.536;49.300;2023-06-14T00:39:46;19.80;35.30
67559;DHT22;54388;53.536;49.300;2023-06-14T00:42:24;19.80;35.30
67559;DHT22;54388;53.536;49.300;2023-06-14T00:44:51;19.80;35.40
67559;DHT22;54388;53.536;49.300;2023-06-14T00:47:17;19.80;35.40
67559;DHT22;54388;53.536;49.300;2023-06-14T00:49:51;19.80;35.50
67559;DHT22;54388;53.536;49.300;2023-06-14T00:52:19;19.90;35.80
67559;DHT22;54388;53.536;49.300;2023-06-14T00:54:45;19.80;35.80
67559;DHT22;54388;53.536;49.300;2023-06-14T00:57:12;19.80;36.00
67559;DHT22;54388;53.536;49.300;2023-06-14T00:59:44;19.80;36.10
67559;DHT22;54388;53.536;49.300;2023-06-14T01:02:11;19.80;36.20
67559;DHT22;54388;53.536;49.300;2023-06-14T01:04:39;19.80;36.40
67559;DHT22;54388;53.536;49.300;2023-06-14T01:07:12;19.80;36.60
67559;DHT22;54388;53.536;49.300;2023-06-14T01:10:12;19.80;36.70
67559;DHT22;54388;53.536;49.300;2023-06-14T01:13:05;19.80;37.20
67559;DHT22;54388;53.536;49.300;2023-06-14T01:15:34;19.80;37.30
67559;DHT22;54388;53.536;49.300;2023-06-14T01:18:03;19.70;37.30
67559;DHT22;54388;53.536;49.300;2023-06-14T01:20:32;19.80;37.40
67559;DHT22;54388;53.536;49.300;2023-06-14T01:22:59;19.70;37.50
67559;DHT22;54388;53.536;49.300;2023-06-14T01:25:26;19.70;37.60
67559;DHT22;54388;53.536;49.300;2023-06-14T01:28:01;19.70;37.80
67559;DHT22;54388;53.536;49.300;2023-06-14T01:30:29;19.70;38.00
67559;DHT22;54388;53.536;49.300;2023-06-14T01:32:58;19.70;37.90
67559;DHT22;54388;53.536;49.300;2023-06-14T01:35:24;19.70;38.00
67559;DHT22;54388;53.536;49.300;2023-06-14T01:37:52;19.70;38.00
67559;DHT22;54388;53.536;49.300;2023-06-14T01:40:19;19.70;38.00
67559;DHT22;54388;53.536;49.300;2023-06-14T01:42:48;19.80;38.00
67559;DHT22;54388;53.536;49.300;2023-06-14T01:45:16;19.80;38.00
67559;DHT22;54388;53.536;49.300;2023-06-14T01:47:44;19.80;37.90
67559;DHT22;54388;53.536;49.300;2023-06-14T01:50:11;19.90;38.00
67559;DHT22;54388;53.536;49.300;2023-06-14T01:52:39;19.90;38.00
67559;DHT22;54388;53.536;49.300;2023-06-14T01:55:06;19.90;38.00
67559;DHT22;54388;53.536;49.300;2023-06-14T01:57:34;19.90;38.00
67559;DHT22;54388;53.536;49.300;2023-06-14T02:00:00;20.00;38.10
67559;DHT22;54388;53.536;49.300;2023-06-14T02:02:27;20.00;38.20
67559;DHT22;54388;53.536;49.300;2023-06-14T02:04:53;20.00;38.20
67559;DHT22;54388;53.536;49.300;2023-06-14T02:07:23;20.10;38.30
67559;DHT22;54388;53.536;49.300;2023-06-14T02:09:50;20.10;38.30
67559;DHT22;54388;53.536;49.300;2023-06-14T02:12:17;20.20;38.30
67559;DHT22;54388;53.536;49.300;2023-06-14T02:14:43;20.20;38.30
67559;DHT22;54388;53.536;49.300;2023-06-14T02:17:10;20.30;38.30
67559;DHT22;54388;53.536;49.300;2023-06-14T02:19:37;20.30;38.20
67559;DHT22;54388;53.536;49.300;2023-06-14T02:22:04;20.30;38.20
67559;DHT22;54388;53.536;49.300;2023-06-14T02:24:31;20.40;38.20
67559;DHT22;54388;53.536;49.300;2023-06-14T02:26:57;20.40;38.20
67559;DHT22;54388;53.536;49.300;2023-06-14T02:29:24;20.40;38.20
67559;DHT22;54388;53.536;49.300;2023-06-14T02:31:50;20.40;38.20
67559;DHT22;54388;53.536;49.300;2023-06-14T02:34:17;20.50;38.40
67559;DHT22;54388;53.536;49.300;2023-06-14T02:36:44;20.50;38.40
67559;DHT22;54388;53.536;49.300;2023-06-14T02:39:11;20.50;38.50
67559;DHT22;54388;53.536;49.300;2023-06-14T02:41:42;20.60;38.40
67559;DHT22;54388;53.536;49.300;2023-06-14T02:44:13;20.60;38.40
67559;DHT22;54388;53.536;49.300;2023-06-14T02:46:39;20.70;38.40
67559;DHT22;54388;53.536;49.300;2023-06-14T02:49:07;20.80;38.30
67559;DHT22;54388;53.536;49.300;2023-06-14T02:51:33;20.80;38.10
67559;DHT22;54388;53.536;49.300;2023-06-14T02:54:00;20.90;38.00
67559;DHT22;54388;53.536;49.300;2023-06-14T02:56:26;21.00;37.80
67559;DHT22;54388;53.536;49.300;2023-06-14T02:58:53;21.10;37.70
67559;DHT22;54388;53.536;49.300;2023-06-14T03:01:20;21.10;37.40
67559;DHT22;54388;53.536;49.300;2023-06-14T03:03:47;21.30;37.50
67559;DHT22;54388;53.536;49.300;2023-06-14T03:06:14;21.30;37.60
67559;DHT22;54388;53.536;49.300;2023-06-14T03:08:42;21.40;37.80
67559;DHT22;54388;53.536;49.300;2023-06-14T03:11:11;21.50;38.10
67559;DHT22;54388;53.536;49.300;2023-06-14T03:13:37;21.60;38.40
67559;DHT22;54388;53.536;49.300;2023-06-14T03:16:04;21.60;38.40
67559;DHT22;54388;53.536;49.300;2023-06-14T03:18:31;21.70;38.50
67559;DHT22;54388;53.536;49.300;2023-06-14T03:21:02;21.70;38.50
67559;DHT22;54388;53.536;49.300;2023-06-14T03:23:28;21.80;38.70
67559;DHT22;54388;53.536;49.300;2023-06-14T03:25:55;21.80;38.80
67559;DHT22;54388;53.536;49.300;2023-06-14T03:28:22;21.80;38.80
67559;DHT22;54388;53.536;49.300;2023-06-14T03:30:48;21.80;38.90
67559;DHT22;54388;53.536;49.300;2023-06-14T03:33:15;21.90;39.00
67559;DHT22;54388;53.536;49.300;2023-06-14T03:35:41;21.90;39.00
67559;DHT22;54388;53.536;49.300;2023-06-14T03:38:08;22.00;39.00
67559;DHT22;54388;53.536;49.300;2023-06-14T03:40:34;22.00;39.00
67559;DHT22;54388;53.536;49.300;2023-06-14T03:43:01;22.10;39.20
67559;DHT22;54388;53.536;49.300;2023-06-14T03:45:27;22.20;39.30
67559;DHT22;54388;53.536;49.300;2023-06-14T03:47:54;22.30;39.50
67559;DHT22;54388;53.536;49.300;2023-06-14T03:50:20;22.30;39.50
67559;DHT22;54388;53.536;49.300;2023-06-14T03:52:48;22.30;39.50
67559;DHT22;54388;53.536;49.300;2023-06-14T03:55:16;22.40;39.80
67559;DHT22;54388;53.536;49.300;2023-06-14T03:57:42;22.40;39.80
67559;DHT22;54388;53.536;49.300;2023-06-14T04:00:10;22.50;40.00
67559;DHT22;54388;53.536;49.300;2023-06-14T04:02:38;22.60;40.10
67559;DHT22;54388;53.536;49.300;2023-06-14T04:05:04;22.60;40.20
67559;DHT22;54388;53.536;49.300;2023-06-14T04:07:35;22.60;40.10
67559;DHT22;54388;53.536;49.300;2023-06-14T04:10:09;22.70;40.30
67559;DHT22;54388;53.536;49.300;2023-06-14T04:12:37;22.70;41.40
67559;DHT22;54388;53.536;49.300;2023-06-14T04:15:04;22.70;40.50
67559;DHT22;54388;53.536;49.300;2023-06-14T04:17:32;22.80;40.60
67559;DHT22;54388;53.536;49.300;2023-06-14T04:19:59;22.80;40.50
67559;DHT22;54388;53.536;49.300;2023-06-14T04:22:27;22.80;40.40
67559;DHT22;54388;53.536;49.300;2023-06-14T04:24:56;22.90;40.40
67559;DHT22;54388;53.536;49.300;2023-06-14T04:27:23;22.90;40.60
67559;DHT22;54388;53.536;49.300;2023-06-14T04:29:52;23.00;40.60
67559;DHT22;54388;53.536;49.300;2023-06-14T04:32:26;23.00;40.60
67559;DHT22;54388;53.536;49.300;2023-06-14T04:34:54;23.10;40.80
67559;DHT22;54388;53.536;49.300;2023-06-14T04:37:21;23.10;40.90
67559;DHT22;54388;53.536;49.300;2023-06-14T04:39:48;23.20;40.90
67559;DHT22;54388;53.536;49.300;2023-06-14T04:42:16;23.20;40.80
67559;DHT22;54388;53.536;49.300;2023-06-14T04:44:43;23.30;40.60
67559;DHT22;54388;53.536;49.300;2023-06-14T04:47:10;23.40;40.50
67559;DHT22;54388;53.536;49.300;2023-06-14T04:49:39;23.50;40.60
67559;DHT22;54388;53.536;49.300;2023-06-14T04:52:07;23.70;40.40
67559;DHT22;54388;53.536;49.300;2023-06-14T04:54:36;23.90;40.20
67559;DHT22;54388;53.536;49.300;2023-06-14T04:57:09;24.00;39.70
67559;DHT22;54388;53.536;49.300;2023-06-14T04:59:40;24.10;38.90
67559;DHT22;54388;53.536;49.300;2023-06-14T05:02:06;24.20;38.60
67559;DHT22;54388;53.536;49.300;2023-06-14T05:04:34;24.30;38.40
67559;DHT22;54388;53.536;49.300;2023-06-14T05:07:09;24.40;38.50
67559;DHT22;54388;53.536;49.300;2023-06-14T05:09:36;24.50;38.90
67559;DHT22;54388;53.536;49.300;2023-06-14T05:12:03;24.60;39.20
67559;DHT22;54388;53.536;49.300;2023-06-14T05:14:30;24.70;39.40
67559;DHT22;54388;53.536;49.300;2023-06-14T05:16:56;24.80;39.10
67559;DHT22;54388;53.536;49.300;2023-06-14T05:19:23;24.90;38.90
67559;DHT22;54388;53.536;49.300;2023-06-14T05:21:50;25.00;38.70
67559;DHT22;54388;53.536;49.300;2023-06-14T05:24:17;25.00;38.60
67559;DHT22;54388;53.536;49.300;2023-06-14T05:26:44;25.20;38.80
67559;DHT22;54388;53.536;49.300;2023-06-14T05:29:11;25.30;38.60
67559;DHT22;54388;53.536;49.300;2023-06-14T05:31:38;25.40;38.40
67559;DHT22;54388;53.536;49.300;2023-06-14T05:34:05;25.60;38.20
67559;DHT22;54388;53.536;49.300;2023-06-14T05:36:31;25.70;37.80
67559;DHT22;54388;53.536;49.300;2023-06-14T05:38:58;25.70;37.90
67559;DHT22;54388;53.536;49.300;2023-06-14T05:41:26;25.70;37.80
67559;DHT22;54388;53.536;49.300;2023-06-14T05:43:54;25.80;37.80
67559;DHT22;54388;53.536;49.300;2023-06-14T05:46:22;25.90;37.50
67559;DHT22;54388;53.536;49.300;2023-06-14T05:48:51;25.90;37.20
67559;DHT22;54388;53.536;49.300;2023-06-14T05:51:18;25.90;37.10
67559;DHT22;54388;53.536;49.300;2023-06-14T05:53:47;26.00;37.10
67559;DHT22;54388;53.536;49.300;2023-06-14T05:56:15;26.00;37.30
67559;DHT22;54388;53.536;49.300;2023-06-14T05:58:44;26.10;36.60
67559;DHT22;54388;53.536;49.300;2023-06-14T06:01:11;26.20;35.70
67559;DHT22;54388;53.536;49.300;2023-06-14T06:03:37;26.30;35.10
67559;DHT22;54388;53.536;49.300;2023-06-14T06:06:04;26.30;34.60
67559;DHT22;54388;53.536;49.300;2023-06-14T06:08:30;26.50;34.20
67559;DHT22;54388;53.536;49.300;2023-06-14T06:10:57;26.60;33.70
67559;DHT22;54388;53.536;49.300;2023-06-14T06:13:24;26.80;33.90
67559;DHT22;54388;53.536;49.300;2023-06-14T06:15:51;26.90;33.40
67559;DHT22;54388;53.536;49.300;2023-06-14T06:18:17;27.20;33.10
67559;DHT22;54388;53.536;49.300;2023-06-14T06:20:44;27.30;32.60
67559;DHT22;54388;53.536;49.300;2023-06-14T06:23:11;27.50;32.20
67559;DHT22;54388;53.536;49.300;2023-06-14T06:25:37;27.70;31.80
67559;DHT22;54388;53.536;49.300;2023-06-14T06:28:04;28.00;31.60
67559;DHT22;54388;53.536;49.300;2023-06-14T06:30:30;28.30;30.90
67559;DHT22;54388;53.536;49.300;2023-06-14T06:32:57;28.50;30.60
67559;DHT22;54388;53.536;49.300;2023-06-14T06:35:24;28.80;30.00
67559;DHT22;54388;53.536;49.300;2023-06-14T06:37:51;29.10;29.40
67559;DHT22;54388;53.536;49.300;2023-06-14T06:40:17;29.40;29.00
67559;DHT22;54388;53.536;49.300;2023-06-14T06:42:44;29.50;28.80
67559;DHT22;54388;53.536;49.300;2023-06-14T06:45:10;29.70;28.60
67559;DHT22;54388;53.536;49.300;2023-06-14T06:47:37;29.80;28.50
67559;DHT22;54388;53.536;49.300;2023-06-14T06:50:04;29.90;28.40
67559;DHT22;54388;53.536;49.300;2023-06-14T06:52:30;30.00;28.20
67559;DHT22;54388;53.536;49.300;2023-06-14T06:54:57;30.10;28.10
67559;DHT22;54388;53.536;49.300;2023-06-14T06:57:23;30.10;28.10
67559;DHT22;54388;53.536;49.300;2023-06-14T06:59:50;30.30;28.00
67559;DHT22;54388;53.536;49.300;2023-06-14T07:02:17;30.50;27.80
67559;DHT22;54388;53.536;49.300;2023-06-14T07:04:44;30.50;27.40
67559;DHT22;54388;53.536;49.300;2023-06-14T07:07:10;30.60;27.30
67559;DHT22;54388;53.536;49.300;2023-06-14T07:09:37;30.70;27.20
67559;DHT22;54388;53.536;49.300;2023-06-14T07:12:04;30.80;27.00
67559;DHT22;54388;53.536;49.300;2023-06-14T07:14:31;30.90;26.90
67559;DHT22;54388;53.536;49.300;2023-06-14T07:16:57;31.10;26.60
67559;DHT22;54388;53.536;49.300;2023-06-14T07:19:24;31.40;26.20
67559;DHT22;54388;53.536;49.300;2023-06-14T07:21:50;31.50;25.90
67559;DHT22;54388;53.536;49.300;2023-06-14T07:24:17;31.50;26.50
67559;DHT22;54388;53.536;49.300;2023-06-14T07:26:43;31.60;25.50
67559;DHT22;54388;53.536;49.300;2023-06-14T07:29:10;31.60;25.30
67559;DHT22;54388;53.536;49.300;2023-06-14T07:31:37;31.60;25.10
67559;DHT22;54388;53.536;49.300;2023-06-14T07:34:03;31.70;25.10
67559;DHT22;54388;53.536;49.300;2023-06-14T07:36:29;31.90;24.90
67559;DHT22;54388;53.536;49.300;2023-06-14T07:38:56;32.00;24.40
67559;DHT22;54388;53.536;49.300;2023-06-14T07:41:23;32.20;24.40
67559;DHT22;54388;53.536;49.300;2023-06-14T07:43:50;32.20;24.40
67559;DHT22;54388;53.536;49.300;2023-06-14T07:46:16;32.20;24.60
67559;DHT22;54388;53.536;49.300;2023-06-14T07:48:42;32.20;24.60
67559;DHT22;54388;53.536;49.300;2023-06-14T07:51:09;32.20;24.60
67559;DHT22;54388;53.536;49.300;2023-06-14T07:53:35;32.20;24.50
67559;DHT22;54388;53.536;49.300;2023-06-14T07:56:02;32.20;24.60
67559;DHT22;54388;53.536;49.300;2023-06-14T07:58:29;32.20;24.60
67559;DHT22;54388;53.536;49.300;2023-06-14T08:00:55;32.20;24.60
67559;DHT22;54388;53.536;49.300;2023-06-14T08:03:22;32.20;24.60
67559;DHT22;54388;53.536;49.300;2023-06-14T08:05:48;32.30;24.70
67559;DHT22;54388;53.536;49.300;2023-06-14T08:08:15;32.20;24.70
67559;DHT22;54388;53.536;49.300;2023-06-14T08:10:42;32.20;24.80
67559;DHT22;54388;53.536;49.300;2023-06-14T08:13:08;32.30;24.70
67559;DHT22;54388;53.536;49.300;2023-06-14T08:15:36;32.40;24.60
67559;DHT22;54388;53.536;49.300;2023-06-14T08:18:02;32.40;24.40
67559;DHT22;54388;53.536;49.300;2023-06-14T08:20:29;32.40;24.50
67559;DHT22;54388;53.536;49.300;2023-06-14T08:22:57;32.40;24.50
67559;DHT22;54388;53.536;49.300;2023-06-14T08:25:24;32.40;24.40
67559;DHT22;54388;53.536;49.300;2023-06-14T08:27:52;32.50;24.20
67559;DHT22;54388;53.536;49.300;2023-06-14T08:30:18;32.60;24.10
67559;DHT22;54388;53.536;49.300;2023-06-14T08:32:45;32.60;24.10
67559;DHT22;54388;53.536;49.300;2023-06-14T08:35:11;32.60;24.00
67559;DHT22;54388;53.536;49.300;2023-06-14T08:37:39;32.70;23.70
67559;DHT22;54388;53.536;49.300;2023-06-14T08:40:20;32.70;23.70
67559;DHT22;54388;53.536;49.300;2023-06-14T08:42:53;32.70;23.80
67559;DHT22;54388;53.536;49.300;2023-06-14T08:45:24;32.60;23.90
67559;DHT22;54388;53.536;49.300;2023-06-14T08:47:51;32.60;23.90
67559;DHT22;54388;53.536;49.300;2023-06-14T08:50:20;32.60;23.90
67559;DHT22;54388;53.536;49.300;2023-06-14T08:52:50;32.60;23.80
67559;DHT22;54388;53.536;49.300;2023-06-14T08:55:19;32.70;23.80
67559;DHT22;54388;53.536;49.300;2023-06-14T08:57:46;32.70;23.80
67559;DHT22;54388;53.536;49.300;2023-06-14T09:00:16;32.70;23.90
67559;DHT22;54388;53.536;49.300;2023-06-14T09:02:43;32.80;23.90
67559;DHT22;54388;53.536;49.300;2023-06-14T09:05:10;32.80;23.70
67559;DHT22;54388;53.536;49.300;2023-06-14T09:07:42;32.90;24.50
67559;DHT22;54388;53.536;49.300;2023-06-14T09:12:37;33.00;23.40
67559;DHT22;54388;53.536;49.300;2023-06-14T09:15:06;33.10;23.30
67559;DHT22;54388;53.536;49.300;2023-06-14T09:17:35;33.10;23.20
67559;DHT22;54388;53.536;49.300;2023-06-14T09:20:04;33.20;23.20
67559;DHT22;54388;53.536;49.300;2023-06-14T09:22:36;33.30;23.20
67559;DHT22;54388;53.536;49.300;2023-06-14T09:25:03;33.40;23.20
67559;DHT22;54388;53.536;49.300;2023-06-14T09:27:29;33.50;23.20
67559;DHT22;54388;53.536;49.300;2023-06-14T09:29:56;33.50;22.90
67559;DHT22;54388;53.536;49.300;2023-06-14T09:32:23;33.60;22.90
67559;DHT22;54388;53.536;49.300;2023-06-14T09:34:49;33.60;22.70
67559;DHT22;54388;53.536;49.300;2023-06-14T09:37:29;33.60;22.50
67559;DHT22;54388;53.536;49.300;2023-06-14T09:39:57;33.60;22.60
67559;DHT22;54388;53.536;49.300;2023-06-14T09:42:24;33.60;22.50
67559;DHT22;54388;53.536;49.300;2023-06-14T09:44:55;33.60;22.60
67559;DHT22;54388;53.536;49.300;2023-06-14T09:47:23;33.60;22.90
67559;DHT22;54388;53.536;49.300;2023-06-14T09:49:51;33.50;23.00
67559;DHT22;54388;53.536;49.300;2023-06-14T09:52:21;33.40;23.30
67559;DHT22;54388;53.536;49.300;2023-06-14T09:54:49;33.40;23.60
67559;DHT22;54388;53.536;49.300;2023-06-14T09:57:22;33.30;23.70
67559;DHT22;54388;53.536;49.300;2023-06-14T09:59:55;33.10;23.90
67559;DHT22;54388;53.536;49.300;2023-06-14T10:02:31;33.10;24.20
67559;DHT22;54388;53.536;49.300;2023-06-14T10:05:05;33.00;24.30
67559;DHT22;54388;53.536;49.300;2023-06-14T10:07:40;32.90;24.50
67559;DHT22;54388;53.536;49.300;2023-06-14T10:10:09;32.90;24.70
67559;DHT22;54388;53.536;49.300;2023-06-14T10:12:36;32.90;24.80
67559;DHT22;54388;53.536;49.300;2023-06-14T10:15:03;32.80;24.80
67559;DHT22;54388;53.536;49.300;2023-06-14T10:17:44;32.80;25.10
67559;DHT22;54388;53.536;49.300;2023-06-14T10:23:21;32.60;25.00
67559;DHT22;54388;53.536;49.300;2023-06-14T10:25:50;32.60;25.30
67559;DHT22;54388;53.536;49.300;2023-06-14T10:28:18;32.60;25.70
67559;DHT22;54388;53.536;49.300;2023-06-14T10:31:10;32.60;25.90
67559;DHT22;54388;53.536;49.300;2023-06-14T10:33:49;32.60;25.70
67559;DHT22;54388;53.536;49.300;2023-06-14T10:39:10;32.70;25.30
67559;DHT22;54388;53.536;49.300;2023-06-14T10:41:38;32.80;24.90
67559;DHT22;54388;53.536;49.300;2023-06-14T10:46:38;33.00;24.50
67559;DHT22;54388;53.536;49.300;2023-06-14T10:49:05;33.30;24.30
67559;DHT22;54388;53.536;49.300;2023-06-14T10:51:41;33.50;24.10
67559;DHT22;54388;53.536;49.300;2023-06-14T10:54:13;33.40;23.90
67559;DHT22;54388;53.536;49.300;2023-06-14T10:56:53;33.50;24.00
67559;DHT22;54388;53.536;49.300;2023-06-14T10:59:21;33.50;24.30
67559;DHT22;54388;53.536;49.300;2023-06-14T11:02:27;33.60;25.10
67559;DHT22;54388;53.536;49.300;2023-06-14T11:05:04;33.50;24.00
67559;DHT22;54388;53.536;49.300;2023-06-14T11:10:26;33.60;23.60
67559;DHT22;54388;53.536;49.300;2023-06-14T11:12:57;33.70;23.40
67559;DHT22;54388;53.536;49.300;2023-06-14T11:15:32;33.80;23.30
67559;DHT22;54388;53.536;49.300;2023-06-14T11:18:19;34.00;23.00
67559;DHT22;54388;53.536;49.300;2023-06-14T11:20:50;34.30;22.90
67559;DHT22;54388;53.536;49.300;2023-06-14T11:23:17;34.60;22.70
67559;DHT22;54388;53.536;49.300;2023-06-14T11:25:48;34.60;22.60
67559;DHT22;54388;53.536;49.300;2023-06-14T11:28:15;34.70;22.40
67559;DHT22;54388;53.536;49.300;2023-06-14T11:30:42;34.80;22.20
67559;DHT22;54388;53.536;49.300;2023-06-14T11:33:10;34.90;22.00
67559;DHT22;54388;53.536;49.300;2023-06-14T11:35:38;35.00;22.00
67559;DHT22;54388;53.536;49.300;2023-06-14T11:38:04;35.10;21.80
67559;DHT22;54388;53.536;49.300;2023-06-14T11:40:32;35.30;21.70
67559;DHT22;54388;53.536;49.300;2023-06-14T11:42:59;35.40;21.70
67559;DHT22;54388;53.536;49.300;2023-06-14T11:45:26;35.40;21.70
67559;DHT22;54388;53.536;49.300;2023-06-14T11:47:55;35.40;21.50
67559;DHT22;54388;53.536;49.300;2023-06-14T11:50:25;35.30;21.60
67559;DHT22;54388;53.536;49.300;2023-06-14T11:52:57;35.20;21.60
67559;DHT22;54388;53.536;49.300;2023-06-14T11:55:26;35.10;21.60
67559;DHT22;54388;53.536;49.300;2023-06-14T11:57:55;35.10;21.70
67559;DHT22;54388;53.536;49.300;2023-06-14T12:00:26;35.00;21.60
67559;DHT22;54388;53.536;49.300;2023-06-14T12:02:54;35.00;21.60
67559;DHT22;54388;53.536;49.300;2023-06-14T12:05:24;35.00;21.50
67559;DHT22;54388;53.536;49.300;2023-06-14T12:08:03;35.00;21.70
67559;DHT22;54388;53.536;49.300;2023-06-14T12:10:43;35.00;21.80
67559;DHT22;54388;53.536;49.300;2023-06-14T12:13:10;34.90;21.90
67559;DHT22;54388;53.536;49.300;2023-06-14T12:15:37;34.90;21.80
67559;DHT22;54388;53.536;49.300;2023-06-14T12:18:06;34.90;21.90
67559;DHT22;54388;53.536;49.300;2023-06-14T12:20:34;34.90;22.90
67559;DHT22;54388;53.536;49.300;2023-06-14T12:23:03;34.90;22.10
67559;DHT22;54388;53.536;49.300;2023-06-14T12:25:35;34.90;22.20
67559;DHT22;54388;53.536;49.300;2023-06-14T12:28:07;34.90;22.20
67559;DHT22;54388;53.536;49.300;2023-06-14T12:30:35;34.80;22.30
67559;DHT22;54388;53.536;49.300;2023-06-14T12:33:03;34.80;22.50
67559;DHT22;54388;53.536;49.300;2023-06-14T12:35:29;34.70;22.40
67559;DHT22;54388;53.536;49.300;2023-06-14T12:37:56;34.70;22.40
67559;DHT22;54388;53.536;49.300;2023-06-14T12:40:23;34.70;22.40
67559;DHT22;54388;53.536;49.300;2023-06-14T12:42:50;34.70;23.40
67559;DHT22;54388;53.536;49.300;2023-06-14T12:45:16;34.60;22.50
67559;DHT22;54388;53.536;49.300;2023-06-14T12:47:42;34.60;22.60
67559;DHT22;54388;53.536;49.300;2023-06-14T12:50:09;34.50;22.60
67559;DHT22;54388;53.536;49.300;2023-06-14T12:52:37;34.50;22.70
67559;DHT22;54388;53.536;49.300;2023-06-14T12:55:06;34.60;22.80
67559;DHT22;54388;53.536;49.300;2023-06-14T12:57:32;34.60;22.70
67559;DHT22;54388;53.536;49.300;2023-06-14T13:00:03;34.60;22.70
67559;DHT22;54388;53.536;49.300;2023-06-14T13:02:31;34.60;22.70
67559;DHT22;54388;53.536;49.300;2023-06-14T13:04:58;34.60;22.60
67559;DHT22;54388;53.536;49.300;2023-06-14T13:07:26;34.60;22.50
67559;DHT22;54388;53.536;49.300;2023-06-14T13:09:52;34.60;22.60
67559;DHT22;54388;53.536;49.300;2023-06-14T13:12:19;34.60;22.60
67559;DHT22;54388;53.536;49.300;2023-06-14T13:14:46;34.60;22.70
67559;DHT22;54388;53.536;49.300;2023-06-14T13:17:12;34.60;22.70
67559;DHT22;54388;53.536;49.300;2023-06-14T13:19:39;34.60;22.80
67559;DHT22;54388;53.536;49.300;2023-06-14T13:22:06;34.50;22.90
67559;DHT22;54388;53.536;49.300;2023-06-14T13:24:33;34.50;23.00
67559;DHT22;54388;53.536;49.300;2023-06-14T13:27:00;34.50;23.00
67559;DHT22;54388;53.536;49.300;2023-06-14T13:29:27;34.40;22.90
67559;DHT22;54388;53.536;49.300;2023-06-14T13:31:54;34.40;23.00
67559;DHT22;54388;53.536;49.300;2023-06-14T13:34:21;34.40;23.10
67559;DHT22;54388;53.536;49.300;2023-06-14T13:36:49;34.30;23.10
67559;DHT22;54388;53.536;49.300;2023-06-14T13:39:16;34.30;23.30
67559;DHT22;54388;53.536;49.300;2023-06-14T13:41:42;34.30;23.30
67559;DHT22;54388;53.536;49.300;2023-06-14T13:44:09;34.20;23.30
67559;DHT22;54388;53.536;49.300;2023-06-14T13:46:40;34.20;23.50
67559;DHT22;54388;53.536;49.300;2023-06-14T13:49:09;34.20;23.60
67559;DHT22;54388;53.536;49.300;2023-06-14T13:51:39;34.20;23.60
67559;DHT22;54388;53.536;49.300;2023-06-14T13:54:06;34.10;23.50
67559;DHT22;54388;53.536;49.300;2023-06-14T13:56:32;34.10;23.60
67559;DHT22;54388;53.536;49.300;2023-06-14T13:58:59;34.10;23.50
67559;DHT22;54388;53.536;49.300;2023-06-14T14:01:27;34.00;23.50
67559;DHT22;54388;53.536;49.300;2023-06-14T14:03:55;34.00;23.60
67559;DHT22;54388;53.536;49.300;2023-06-14T14:06:21;34.00;23.60
67559;DHT22;54388;53.536;49.300;2023-06-14T14:08:48;34.10;23.60
67559;DHT22;54388;53.536;49.300;2023-06-14T14:11:15;34.10;23.50
67559;DHT22;54388;53.536;49.300;2023-06-14T14:13:42;34.10;23.30
67559;DHT22;54388;53.536;49.300;2023-06-14T14:16:09;34.20;23.30
67559;DHT22;54388;53.536;49.300;2023-06-14T14:18:36;34.30;23.20
67559;DHT22;54388;53.536;49.300;2023-06-14T14:21:03;34.30;23.20
67559;DHT22;54388;53.536;49.300;2023-06-14T14:23:30;34.40;23.10
67559;DHT22;54388;53.536;49.300;2023-06-14T14:25:57;34.50;23.10
67559;DHT22;54388;53.536;49.300;2023-06-14T14:28:23;34.60;23.00
67559;DHT22;54388;53.536;49.300;2023-06-14T14:30:50;34.80;22.90
67559;DHT22;54388;53.536;49.300;2023-06-14T14:33:16;34.90;22.80
67559;DHT22;54388;53.536;49.300;2023-06-14T14:35:44;35.00;22.70
67559;DHT22;54388;53.536;49.300;2023-06-14T14:38:14;35.20;22.60
67559;DHT22;54388;53.536;49.300;2023-06-14T14:40:44;35.20;22.40
67559;DHT22;54388;53.536;49.300;2023-06-14T14:43:11;35.30;22.30
67559;DHT22;54388;53.536;49.300;2023-06-14T14:45:38;35.30;22.30
67559;DHT22;54388;53.536;49.300;2023-06-14T14:48:04;35.40;22.40
67559;DHT22;54388;53.536;49.300;2023-06-14T14:50:32;35.40;22.30
67559;DHT22;54388;53.536;49.300;2023-06-14T14:52:58;35.40;22.30
67559;DHT22;54388;53.536;49.300;2023-06-14T14:55:25;35.50;22.30
67559;DHT22;54388;53.536;49.300;2023-06-14T14:57:51;35.50;22.30
67559;DHT22;54388;53.536;49.300;2023-06-14T15:00:18;35.50;23.10
67559;DHT22;54388;53.536;49.300;2023-06-14T15:02:45;35.50;22.30
67559;DHT22;54388;53.536;49.300;2023-06-14T15:05:11;35.50;22.20
67559;DHT22;54388;53.536;49.300;2023-06-14T15:07:38;35.40;22.20
67559;DHT22;54388;53.536;49.300;2023-06-14T15:10:06;35.40;22.20
67559;DHT22;54388;53.536;49.300;2023-06-14T15:12:34;35.30;22.10
67559;DHT22;54388;53.536;49.300;2023-06-14T15:15:01;35.20;22.20
67559;DHT22;54388;53.536;49.300;2023-06-14T15:17:28;35.10;22.30
67559;DHT22;54388;53.536;49.300;2023-06-14T15:19:55;35.10;23.10
67559;DHT22;54388;53.536;49.300;2023-06-14T15:22:21;35.00;22.40
67559;DHT22;54388;53.536;49.300;2023-06-14T15:24:48;34.90;22.60
67559;DHT22;54388;53.536;49.300;2023-06-14T15:27:15;34.90;22.70
67559;DHT22;54388;53.536;49.300;2023-06-14T15:29:42;34.70;22.70
67559;DHT22;54388;53.536;49.300;2023-06-14T15:32:09;34.60;22.80
67559;DHT22;54388;53.536;49.300;2023-06-14T15:34:35;34.60;23.00